createdAt,value
2019-02-04T00:01:21.581Z,30.60
2019-02-04T00:03:49.076Z,29.53
2019-02-04T00:06:16.577Z,32.67
2019-02-04T00:08:44.064Z,32.13
2019-02-04T00:11:11.594Z,31.33
2019-02-04T00:13:39.086Z,33.10
2019-02-04T00:16:06.698Z,28.23
2019-02-04T00:18:34.212Z,30.57
2019-02-04T00:21:02.014Z,29.97
2019-02-04T00:23:29.521Z,31.73
2019-02-04T00:25:57.053Z,32.20
2019-02-04T00:28:24.573Z,30.53
2019-02-04T00:30:52.049Z,31.20
2019-02-04T00:33:19.579Z,32.30
2019-02-04T00:35:47.091Z,30.87
2019-02-04T00:38:14.678Z,28.60
2019-02-04T00:40:42.205Z,25.83
2019-02-04T00:43:09.699Z,26.93
2019-02-04T00:45:37.183Z,27.97
2019-02-04T00:48:04.685Z,27.03
2019-02-04T00:50:32.177Z,27.50
2019-02-04T00:52:59.664Z,29.20
2019-02-04T00:55:27.271Z,28.27
2019-02-04T00:57:54.757Z,27.03
2019-02-04T01:00:27.055Z,26.20
2019-02-04T01:02:54.675Z,26.53
2019-02-04T01:05:22.262Z,25.77
2019-02-04T01:07:49.898Z,25.90
2019-02-04T01:10:20.051Z,27.43
2019-02-04T01:12:48.033Z,27.93
2019-02-04T01:15:15.662Z,26.23
2019-02-04T01:17:43.185Z,24.37
2019-02-04T01:20:12.138Z,24.47
2019-02-04T01:22:39.782Z,25.10
2019-02-04T01:25:08.205Z,22.53
2019-02-04T01:27:35.957Z,22.00
2019-02-04T01:30:04.394Z,19.77
2019-02-04T01:32:31.889Z,21.40
2019-02-04T01:34:59.381Z,18.80
2019-02-04T01:37:26.890Z,18.27
2019-02-04T01:39:54.398Z,18.67
2019-02-04T01:42:22.181Z,17.77
2019-02-04T01:44:49.685Z,18.33
2019-02-04T01:47:17.185Z,18.97
2019-02-04T01:49:44.722Z,18.27
2019-02-04T01:52:12.201Z,18.63
2019-02-04T01:54:39.697Z,16.77
2019-02-04T01:57:07.217Z,16.80
2019-02-04T01:59:34.713Z,16.87
2019-02-04T02:02:02.214Z,17.20
2019-02-04T02:04:29.733Z,13.63
2019-02-04T02:06:57.216Z,11.60
2019-02-04T02:09:24.706Z,13.43
2019-02-04T02:11:52.234Z,11.77
2019-02-04T02:14:20.026Z,11.80
2019-02-04T02:16:48.645Z,10.03
2019-02-04T02:19:16.185Z,10.63
2019-02-04T02:21:43.670Z,9.77
2019-02-04T02:24:11.239Z,9.70
2019-02-04T02:26:38.758Z,10.30
2019-02-04T02:29:06.235Z,10.33
2019-02-04T02:31:33.773Z,10.43
2019-02-04T02:34:01.279Z,9.03
2019-02-04T02:36:28.798Z,9.43
2019-02-04T02:38:56.295Z,11.50
2019-02-04T02:41:23.787Z,9.27
2019-02-04T02:43:51.315Z,9.77
2019-02-04T02:46:18.801Z,9.00
2019-02-04T02:48:46.491Z,8.30
2019-02-04T02:51:13.997Z,9.30
2019-02-04T02:53:41.482Z,8.33
2019-02-04T02:56:08.975Z,7.67
2019-02-04T02:58:36.497Z,8.90
2019-02-04T03:01:04.091Z,8.40
2019-02-04T03:03:31.565Z,8.07
2019-02-04T03:05:59.132Z,8.50
2019-02-04T03:08:26.615Z,7.97
2019-02-04T03:10:54.091Z,8.20
2019-02-04T03:13:21.626Z,8.70
2019-02-04T03:15:49.109Z,8.27
2019-02-04T03:18:16.614Z,8.20
2019-02-04T03:20:44.145Z,7.00
2019-02-04T03:23:11.619Z,7.20
2019-02-04T03:25:39.378Z,6.20
2019-02-04T03:28:06.901Z,7.00
2019-02-04T03:30:34.380Z,6.60
2019-02-04T03:33:01.975Z,5.90
2019-02-04T03:35:29.469Z,6.70
2019-02-04T03:37:57.364Z,6.43
2019-02-04T03:40:26.909Z,6.03
2019-02-04T03:42:54.642Z,5.97
2019-02-04T03:45:22.135Z,5.90
2019-02-04T03:47:49.630Z,5.17
2019-02-04T03:50:17.257Z,6.53
2019-02-04T03:52:44.733Z,5.90
2019-02-04T03:55:13.161Z,5.33
2019-02-04T03:57:40.899Z,6.57
2019-02-04T04:00:17.807Z,5.27
2019-02-04T04:02:45.335Z,5.30
2019-02-04T04:05:12.917Z,5.53
2019-02-04T04:07:40.797Z,5.60
2019-02-04T04:10:09.153Z,6.07
2019-02-04T04:12:36.633Z,6.53
2019-02-04T04:15:04.875Z,5.40
2019-02-04T04:17:32.385Z,5.73
2019-02-04T04:19:59.883Z,5.80
2019-02-04T04:22:27.414Z,5.23
2019-02-04T04:24:55.393Z,4.40
2019-02-04T04:27:22.885Z,4.13
2019-02-04T04:29:50.418Z,4.60
2019-02-04T04:32:17.909Z,4.77
2019-02-04T04:34:45.393Z,5.67
2019-02-04T04:37:12.892Z,4.53
2019-02-04T04:39:40.421Z,4.30
2019-02-04T04:42:08.298Z,3.27
2019-02-04T04:44:35.789Z,3.70
2019-02-04T04:47:03.465Z,3.20
2019-02-04T04:49:30.929Z,3.87
2019-02-04T04:51:58.426Z,3.17
2019-02-04T04:54:25.942Z,2.00
2019-02-04T04:56:53.440Z,2.83
2019-02-04T04:59:20.928Z,3.40
2019-02-04T05:01:48.447Z,3.37
2019-02-04T05:04:15.933Z,3.70
2019-02-04T05:06:43.417Z,3.87
2019-02-04T05:09:10.957Z,4.63
2019-02-04T05:11:38.465Z,5.43
2019-02-04T05:14:05.965Z,4.90
2019-02-04T05:16:33.498Z,5.73
2019-02-04T05:19:01.018Z,5.63
2019-02-04T05:21:28.505Z,5.57
2019-02-04T05:23:57.151Z,4.40
2019-02-04T05:26:24.651Z,6.70
2019-02-04T05:28:52.141Z,7.50
2019-02-04T05:31:19.902Z,5.70
2019-02-04T05:33:47.387Z,8.50
2019-02-04T05:36:14.877Z,7.10
2019-02-04T05:38:42.391Z,6.50
2019-02-04T05:41:09.893Z,6.20
2019-02-04T05:43:37.391Z,6.50
2019-02-04T05:46:04.969Z,6.63
2019-02-04T05:48:32.671Z,6.83
2019-02-04T05:51:00.146Z,6.90
2019-02-04T05:53:27.653Z,4.70
2019-02-04T05:55:55.150Z,5.97
2019-02-04T05:58:22.659Z,6.40
2019-02-04T06:00:50.799Z,6.67
2019-02-04T06:03:18.269Z,4.40
2019-02-04T06:05:45.985Z,3.73
2019-02-04T06:08:13.486Z,4.70
2019-02-04T06:10:41.011Z,4.67
2019-02-04T06:13:08.507Z,3.70
2019-02-04T06:15:35.993Z,3.30
2019-02-04T06:18:03.658Z,3.80
2019-02-04T06:20:31.173Z,4.23
2019-02-04T06:22:58.974Z,5.20
2019-02-04T06:25:26.501Z,5.20
2019-02-04T06:27:54.091Z,6.53
2019-02-04T06:30:21.611Z,3.17
2019-02-04T06:32:49.149Z,4.83
2019-02-04T06:35:16.732Z,4.13
2019-02-04T06:37:46.651Z,3.93
2019-02-04T06:40:14.149Z,5.20
2019-02-04T06:42:41.641Z,5.27
2019-02-04T06:45:10.637Z,4.77
2019-02-04T06:47:38.570Z,4.97
2019-02-04T06:50:08.131Z,6.97
2019-02-04T06:52:35.629Z,6.20
2019-02-04T06:55:04.497Z,6.07
2019-02-04T06:57:31.988Z,6.77
2019-02-04T06:59:59.484Z,5.80
2019-02-04T07:02:27.016Z,5.83
2019-02-04T07:04:54.509Z,5.27
2019-02-04T07:07:22.003Z,7.37
2019-02-04T07:09:49.915Z,5.70
2019-02-04T07:12:17.405Z,7.47
2019-02-04T07:14:44.898Z,7.47
2019-02-04T07:17:12.415Z,7.60
2019-02-04T07:19:39.939Z,7.60
2019-02-04T07:22:07.435Z,7.23
2019-02-04T07:24:42.521Z,8.27
2019-02-04T07:27:04.253Z,8.57
2019-02-04T07:29:31.741Z,10.40
2019-02-04T07:31:59.428Z,7.30
2019-02-04T07:34:26.915Z,10.00
2019-02-04T07:36:54.387Z,9.73
2019-02-04T07:39:21.927Z,9.50
2019-02-04T07:41:49.407Z,9.60
2019-02-04T07:44:16.907Z,10.20
2019-02-04T07:46:44.399Z,10.30
2019-02-04T07:49:11.995Z,10.50
2019-02-04T07:51:39.581Z,10.27
2019-02-04T07:54:07.086Z,9.80
2019-02-04T07:56:34.595Z,11.03
2019-02-04T07:59:02.132Z,10.20
2019-02-04T08:01:30.040Z,9.97
2019-02-04T08:03:57.525Z,10.70
2019-02-04T08:06:25.040Z,11.43
2019-02-04T08:08:52.525Z,13.53
2019-02-04T08:11:20.038Z,12.17
2019-02-04T08:13:47.744Z,10.07
2019-02-04T08:16:15.253Z,9.27
2019-02-04T08:18:43.152Z,10.80
2019-02-04T08:21:10.684Z,12.83
2019-02-04T08:23:38.164Z,10.77
2019-02-04T08:26:05.652Z,12.63
2019-02-04T08:28:33.158Z,12.80
2019-02-04T08:31:00.661Z,12.10
2019-02-04T08:33:28.176Z,10.87
2019-02-04T08:35:56.053Z,12.00
2019-02-04T08:38:23.554Z,11.90
2019-02-04T08:40:51.093Z,13.23
2019-02-04T08:43:18.595Z,13.27
2019-02-04T08:45:46.074Z,11.53
2019-02-04T08:48:13.589Z,12.63
2019-02-04T08:50:41.120Z,11.67
2019-02-04T08:53:08.607Z,12.70
2019-02-04T08:55:36.509Z,13.07
2019-02-04T08:58:04.778Z,13.83
2019-02-04T09:00:32.314Z,13.87
2019-02-04T09:02:59.854Z,12.87
2019-02-04T09:05:27.367Z,12.33
2019-02-04T09:07:54.934Z,13.70
2019-02-04T09:10:32.114Z,11.47
2019-02-04T09:13:00.291Z,11.37
2019-02-04T09:15:27.871Z,13.93
2019-02-04T09:17:55.784Z,11.70
2019-02-04T09:20:23.623Z,12.07
2019-02-04T09:22:51.168Z,14.60
2019-02-04T09:25:19.092Z,11.67
2019-02-04T09:27:47.079Z,12.23
2019-02-04T09:30:17.242Z,11.63
2019-02-04T09:32:44.744Z,12.47
2019-02-04T09:35:13.653Z,12.43
2019-02-04T09:37:41.194Z,14.17
2019-02-04T09:40:12.058Z,13.67
2019-02-04T09:42:39.616Z,14.03
2019-02-04T09:45:09.836Z,11.70
2019-02-04T09:47:37.379Z,13.83
2019-02-04T09:50:05.940Z,13.83
2019-02-04T09:52:33.438Z,13.47
2019-02-04T09:55:00.951Z,13.63
2019-02-04T09:57:28.453Z,13.63
2019-02-04T09:59:56.132Z,15.40
2019-02-04T10:02:23.924Z,14.03
2019-02-04T10:04:51.422Z,9.90
2019-02-04T10:07:18.960Z,12.37
2019-02-04T10:09:46.477Z,10.17
2019-02-04T10:12:14.022Z,10.50
2019-02-04T10:14:41.571Z,11.60
2019-02-04T10:17:09.574Z,10.63
2019-02-04T10:19:37.142Z,10.90
2019-02-04T10:22:04.819Z,10.67
2019-02-04T10:24:32.307Z,11.87
2019-02-04T10:26:59.821Z,10.20
2019-02-04T10:29:27.372Z,12.60
2019-02-04T10:31:54.863Z,10.53
2019-02-04T10:34:22.731Z,12.90
2019-02-04T10:36:50.261Z,12.90
2019-02-04T10:39:17.792Z,9.90
2019-02-04T10:41:45.295Z,9.23
2019-02-04T10:44:12.955Z,11.30
2019-02-04T10:46:42.684Z,12.70
2019-02-04T10:49:10.205Z,13.43
2019-02-04T10:51:37.691Z,14.00
2019-02-04T10:54:05.232Z,11.47
2019-02-04T10:56:32.817Z,13.00
2019-02-04T10:59:00.348Z,12.27
2019-02-04T11:01:27.882Z,14.03
2019-02-04T11:03:55.391Z,12.40
2019-02-04T11:06:22.869Z,11.40
2019-02-04T11:08:50.786Z,15.80
2019-02-04T11:11:18.311Z,13.97
2019-02-04T11:13:45.810Z,13.53
2019-02-04T11:16:13.345Z,10.80
2019-02-04T11:18:40.923Z,14.00
2019-02-04T11:21:08.464Z,16.20
2019-02-04T11:23:36.181Z,15.13
2019-02-04T11:26:03.889Z,16.40
2019-02-04T11:28:31.440Z,16.37
2019-02-04T11:31:01.235Z,13.40
2019-02-04T11:33:28.746Z,13.77
2019-02-04T11:35:56.262Z,12.37
2019-02-04T11:38:23.744Z,12.47
2019-02-04T11:40:51.685Z,10.87
2019-02-04T11:43:19.198Z,11.17
2019-02-04T11:45:46.685Z,10.63
2019-02-04T11:48:15.113Z,12.33
2019-02-04T11:50:42.614Z,12.87
2019-02-04T11:53:10.219Z,15.80
2019-02-04T11:55:37.726Z,14.17
2019-02-04T11:58:07.810Z,14.27
2019-02-04T12:00:35.327Z,13.20
2019-02-04T12:03:03.564Z,12.37
2019-02-04T12:05:31.036Z,20.43
2019-02-04T12:07:58.614Z,15.03
2019-02-04T12:10:40.094Z,15.87
2019-02-04T12:13:07.648Z,15.00
2019-02-04T12:15:35.197Z,15.43
2019-02-04T12:18:02.845Z,13.70
2019-02-04T12:20:30.426Z,15.53
2019-02-04T12:22:58.112Z,14.27
2019-02-04T12:25:25.868Z,15.70
2019-02-04T12:27:54.618Z,13.00
2019-02-04T12:30:27.378Z,12.17
2019-02-04T12:32:55.844Z,13.10
2019-02-04T12:35:23.376Z,13.83
2019-02-04T12:37:50.972Z,14.37
2019-02-04T12:40:18.572Z,13.80
2019-02-04T12:42:46.136Z,16.17
2019-02-04T12:45:19.594Z,14.63
2019-02-04T12:47:47.229Z,15.73
2019-02-04T12:50:15.082Z,14.00
2019-02-04T12:52:42.972Z,14.07
2019-02-04T12:55:12.972Z,18.43
2019-02-04T12:57:40.500Z,15.63
2019-02-04T13:00:11.222Z,16.87
2019-02-04T13:02:38.740Z,17.97
2019-02-04T13:05:07.731Z,18.30
2019-02-04T13:07:35.280Z,17.90
2019-02-04T13:10:03.350Z,16.17
2019-02-04T13:12:30.912Z,16.83
2019-02-04T13:14:58.784Z,16.80
2019-02-04T13:17:26.940Z,15.40
2019-02-04T13:19:54.668Z,17.07
2019-02-04T13:22:22.250Z,15.73
2019-02-04T13:24:49.894Z,15.53
2019-02-04T13:27:17.462Z,14.80
2019-02-04T13:29:45.008Z,13.60
2019-02-04T13:32:12.766Z,16.10
2019-02-04T13:34:40.304Z,14.23
2019-02-04T13:37:07.875Z,15.47
2019-02-04T13:39:35.664Z,14.80
2019-02-04T13:42:03.409Z,15.97
2019-02-04T13:44:30.988Z,15.33
2019-02-04T13:46:58.572Z,16.63
2019-02-04T13:49:26.076Z,17.23
2019-02-04T13:51:57.863Z,16.90
2019-02-04T13:54:25.398Z,16.07
2019-02-04T13:56:52.880Z,16.73
2019-02-04T13:59:20.410Z,17.73
2019-02-04T14:01:47.922Z,18.27
2019-02-04T14:04:15.697Z,19.23
2019-02-04T14:06:43.326Z,18.87
2019-02-04T14:09:18.350Z,20.97
2019-02-04T14:11:45.874Z,21.13
2019-02-04T14:14:13.438Z,21.93
2019-02-04T14:16:40.944Z,22.63
2019-02-04T14:19:08.465Z,24.93
2019-02-04T14:21:36.016Z,29.50
2019-02-04T14:24:03.526Z,26.93
2019-02-04T14:26:31.011Z,28.33
2019-02-04T14:28:58.555Z,24.90
2019-02-04T14:31:26.066Z,26.57
2019-02-04T14:33:54.000Z,33.83
2019-02-04T14:36:21.546Z,29.17
2019-02-04T14:38:49.050Z,28.10
2019-02-04T14:41:16.555Z,27.30
2019-02-04T14:43:53.594Z,24.80
2019-02-04T14:46:42.458Z,26.53
2019-02-04T14:49:45.838Z,24.67
2019-02-04T14:52:47.342Z,26.90
2019-02-04T14:56:05.870Z,25.53
2019-02-04T14:58:53.565Z,25.33
2019-02-04T15:02:05.050Z,24.00
2019-02-04T15:04:54.594Z,23.70
2019-02-04T15:08:06.070Z,23.93
2019-02-04T15:11:24.174Z,42.60
2019-02-04T15:14:46.171Z,28.17
2019-02-04T15:17:47.466Z,21.73
2019-02-04T15:20:39.313Z,21.53
2019-02-04T15:23:51.750Z,24.23
2019-02-04T15:27:06.076Z,23.77
2019-02-04T15:30:04.750Z,25.57
2019-02-04T15:33:19.606Z,24.87
2019-02-04T15:36:12.011Z,26.57
2019-02-04T15:39:16.468Z,22.07
2019-02-04T15:42:32.775Z,21.33
2019-02-04T15:45:28.898Z,23.97
2019-02-04T15:48:17.856Z,22.67
2019-02-04T15:51:00.026Z,23.37
2019-02-04T15:53:27.564Z,26.77
2019-02-04T15:55:55.225Z,31.17
2019-02-04T15:58:22.762Z,30.30
2019-02-04T16:00:50.282Z,31.33
2019-02-04T16:03:18.304Z,31.73
2019-02-04T16:05:46.633Z,32.90
2019-02-04T16:08:14.278Z,34.30
2019-02-04T16:10:41.984Z,33.57
2019-02-04T16:13:09.594Z,37.80
2019-02-04T16:15:37.084Z,68.07
2019-02-04T16:18:04.818Z,91.97
2019-02-04T16:20:32.368Z,78.67
2019-02-04T16:22:59.944Z,42.90
2019-02-04T16:25:27.520Z,35.17
2019-02-04T16:27:55.294Z,43.67
2019-02-04T16:30:22.798Z,38.93
2019-02-04T16:32:52.848Z,36.77
2019-02-04T16:35:19.622Z,34.53
2019-02-04T16:37:48.274Z,41.97
2019-02-04T16:40:17.622Z,44.10
2019-02-04T16:42:45.126Z,45.53
2019-02-04T16:45:13.200Z,41.40
2019-02-04T16:47:40.831Z,38.87
2019-02-04T16:50:12.498Z,32.87
2019-02-04T16:52:40.028Z,39.30
2019-02-04T16:55:07.534Z,35.80
2019-02-04T16:57:35.146Z,31.73
2019-02-04T17:00:03.307Z,29.57
2019-02-04T17:02:30.798Z,29.47
2019-02-04T17:04:58.378Z,32.90
2019-02-04T17:07:25.922Z,32.90
2019-02-04T17:09:53.422Z,31.10
2019-02-04T17:12:20.949Z,31.13
2019-02-04T17:14:48.538Z,33.33
2019-02-04T17:17:16.034Z,34.13
2019-02-04T17:19:43.554Z,36.93
2019-02-04T17:22:11.098Z,36.70
2019-02-04T17:24:38.928Z,35.43
2019-02-04T17:27:06.430Z,34.77
2019-02-04T17:29:33.946Z,35.57
2019-02-04T17:32:01.439Z,29.43
2019-02-04T17:34:28.977Z,20.17
2019-02-04T17:36:56.478Z,16.03
2019-02-04T17:39:23.980Z,18.10
2019-02-04T17:41:51.574Z,20.83
2019-02-04T17:44:19.154Z,16.13
2019-02-04T17:46:46.675Z,16.87
2019-02-04T17:49:14.180Z,24.50
2019-02-04T17:51:41.670Z,33.90
2019-02-04T17:54:09.202Z,28.80
2019-02-04T17:56:36.729Z,35.27
2019-02-04T17:59:04.641Z,30.73
2019-02-04T18:01:32.164Z,27.23
2019-02-04T18:03:59.796Z,24.60
2019-02-04T18:06:27.356Z,23.27
2019-02-04T18:08:54.920Z,23.93
2019-02-04T18:11:22.453Z,25.20
2019-02-04T18:13:50.010Z,27.13
2019-02-04T18:16:17.517Z,30.13
2019-02-04T18:18:45.034Z,31.70
2019-02-04T18:21:12.562Z,28.33
2019-02-04T18:23:45.930Z,23.03
2019-02-04T18:26:09.417Z,15.37
2019-02-04T18:28:37.413Z,10.43
2019-02-04T18:31:04.961Z,11.83
2019-02-04T18:33:32.934Z,12.50
2019-02-04T18:36:00.463Z,11.70
2019-02-04T18:38:27.993Z,12.03
2019-02-04T18:40:55.934Z,11.30
2019-02-04T18:43:23.434Z,11.80
2019-02-04T18:45:50.944Z,12.40
2019-02-04T18:48:18.495Z,14.03
2019-02-04T18:50:46.414Z,14.93
2019-02-04T18:53:13.926Z,19.03
2019-02-04T18:55:41.496Z,13.87
2019-02-04T18:58:09.186Z,14.57
2019-02-04T19:00:36.697Z,14.63
2019-02-04T19:03:16.507Z,12.50
2019-02-04T19:05:34.419Z,13.30
2019-02-04T19:08:01.980Z,12.43
2019-02-04T19:10:29.520Z,9.67
2019-02-04T19:12:57.018Z,12.40
2019-02-04T19:15:24.611Z,12.03
2019-02-04T19:17:54.605Z,11.73
2019-02-04T19:20:22.676Z,18.00
2019-02-04T19:22:50.339Z,12.40
2019-02-04T19:25:18.603Z,9.33
2019-02-04T19:27:46.545Z,13.80
2019-02-04T19:30:26.249Z,21.53
2019-02-04T19:32:54.062Z,16.17
2019-02-04T19:35:21.553Z,14.87
2019-02-04T19:37:49.122Z,10.87
2019-02-04T19:40:16.933Z,11.77
2019-02-04T19:42:44.565Z,10.67
2019-02-04T19:45:15.109Z,11.07
2019-02-04T19:47:44.287Z,11.40
2019-02-04T19:50:15.790Z,14.57
2019-02-04T19:52:43.378Z,16.87
2019-02-04T19:55:11.146Z,18.27
2019-02-04T19:57:38.745Z,16.53
2019-02-04T20:00:10.208Z,17.90
2019-02-04T20:02:37.705Z,17.83
2019-02-04T20:05:07.210Z,17.37
2019-02-04T20:07:34.762Z,24.40
2019-02-04T20:10:02.874Z,23.43
2019-02-04T20:12:30.369Z,25.13
2019-02-04T20:14:57.914Z,25.20
2019-02-04T20:17:25.441Z,61.40
2019-02-04T20:19:52.945Z,40.13
2019-02-04T20:22:20.871Z,24.87
2019-02-04T20:24:48.471Z,16.27
2019-02-04T20:27:16.026Z,15.80
2019-02-04T20:29:43.526Z,15.73
2019-02-04T20:32:11.202Z,17.87
2019-02-04T20:34:38.724Z,17.03
2019-02-04T20:37:06.225Z,23.97
2019-02-04T20:39:33.961Z,26.50
2019-02-04T20:42:01.889Z,27.93
2019-02-04T20:44:29.377Z,26.67
2019-02-04T20:46:57.231Z,22.50
2019-02-04T20:49:24.761Z,22.07
2019-02-04T20:51:52.283Z,21.03
2019-02-04T20:54:20.785Z,20.90
2019-02-04T20:56:49.169Z,18.73
2019-02-04T20:59:16.672Z,17.87
2019-02-04T21:01:44.194Z,18.23
2019-02-04T21:04:11.697Z,17.77
2019-02-04T21:06:39.227Z,18.67
2019-02-04T21:09:08.799Z,22.17
2019-02-04T21:11:36.301Z,26.33
2019-02-04T21:14:04.462Z,27.20
2019-02-04T21:16:32.002Z,26.13
2019-02-04T21:18:59.514Z,27.97
2019-02-04T21:21:27.045Z,30.60
2019-02-04T21:23:54.573Z,25.00
2019-02-04T21:26:22.164Z,22.27
2019-02-04T21:28:49.938Z,20.27
2019-02-04T21:31:17.674Z,19.93
2019-02-04T21:33:46.021Z,18.30
2019-02-04T21:36:13.554Z,19.03
2019-02-04T21:38:41.083Z,18.50
2019-02-04T21:41:08.633Z,18.67
2019-02-04T21:43:36.137Z,17.93
2019-02-04T21:46:03.953Z,15.33
2019-02-04T21:48:31.915Z,12.50
2019-02-04T21:50:59.421Z,13.67
2019-02-04T21:53:26.970Z,10.57
2019-02-04T21:55:54.528Z,11.50
2019-02-04T21:58:22.025Z,11.13
2019-02-04T22:00:49.611Z,10.73
2019-02-04T22:03:17.161Z,9.87
2019-02-04T22:05:45.068Z,8.40
2019-02-04T22:08:12.583Z,8.67
2019-02-04T22:10:40.550Z,9.77
2019-02-04T22:13:08.117Z,8.90
2019-02-04T22:15:36.028Z,8.83
2019-02-04T22:18:05.649Z,9.37
2019-02-04T22:20:33.615Z,9.13
2019-02-04T22:23:01.171Z,10.43
2019-02-04T22:25:28.735Z,11.00
2019-02-04T22:27:56.233Z,11.23
2019-02-04T22:30:25.685Z,12.17
2019-02-04T22:32:53.285Z,15.30
2019-02-04T22:35:20.797Z,12.40
2019-02-04T22:37:48.303Z,11.53
2019-02-04T22:40:18.486Z,11.50
2019-02-04T22:42:45.997Z,11.63
2019-02-04T22:45:13.849Z,12.23
2019-02-04T22:47:41.533Z,13.20
2019-02-04T22:50:34.707Z,12.57
2019-02-04T22:53:02.667Z,13.50
2019-02-04T22:55:32.298Z,12.53
2019-02-04T22:57:59.544Z,14.83
2019-02-04T23:00:46.009Z,15.63
2019-02-04T23:03:14.537Z,13.20
2019-02-04T23:05:42.045Z,13.90
2019-02-04T23:08:09.577Z,15.03
2019-02-04T23:10:37.080Z,15.17
2019-02-04T23:13:05.139Z,15.30
2019-02-04T23:15:32.786Z,17.17
2019-02-04T23:18:00.295Z,16.33
2019-02-04T23:20:28.099Z,16.93
2019-02-04T23:22:55.644Z,17.33
2019-02-04T23:25:23.485Z,15.67
2019-02-04T23:27:50.985Z,16.60
2019-02-04T23:30:18.665Z,17.23
2019-02-04T23:32:46.179Z,18.90
2019-02-04T23:35:13.756Z,18.23
2019-02-04T23:37:41.625Z,16.20
2019-02-04T23:40:09.363Z,17.60
2019-02-04T23:42:36.861Z,17.27
2019-02-04T23:45:05.287Z,14.00
2019-02-04T23:47:32.779Z,13.03
2019-02-04T23:50:01.198Z,12.07
2019-02-04T23:52:28.748Z,12.30
2019-02-04T23:54:56.253Z,11.37
2019-02-04T23:57:23.823Z,12.60
2019-02-04T23:59:51.341Z,12.80
